sensor_id;sensor_type;location;lat;lon;timestamp;temperature;humidity
68450;SHT30;55434;39.570;2.652;2022-07-06T00:01:30;27.26;52.33
68450;SHT30;55434;39.570;2.652;2022-07-06T00:03:56;27.18;54.08
68450;SHT30;55434;39.570;2.652;2022-07-06T00:06:22;27.07;54.01
68450;SHT30;55434;39.570;2.652;2022-07-06T00:08:49;27.04;53.09
68450;SHT30;55434;39.570;2.652;2022-07-06T00:11:14;27.13;53.70
68450;SHT30;55434;39.570;2.652;2022-07-06T00:13:40;27.17;52.64
68450;SHT30;55434;39.570;2.652;2022-07-06T00:16:05;27.17;52.25
68450;SHT30;55434;39.570;2.652;2022-07-06T00:18:31;27.18;51.43
68450;SHT30;55434;39.570;2.652;2022-07-06T00:20:57;27.22;52.43
68450;SHT30;55434;39.570;2.652;2022-07-06T00:23:22;27.24;52.89
68450;SHT30;55434;39.570;2.652;2022-07-06T00:25:48;27.27;53.41
68450;SHT30;55434;39.570;2.652;2022-07-06T00:28:14;27.31;51.34
68450;SHT30;55434;39.570;2.652;2022-07-06T00:30:39;27.38;50.86
68450;SHT30;55434;39.570;2.652;2022-07-06T00:33:05;27.41;52.19
68450;SHT30;55434;39.570;2.652;2022-07-06T00:35:31;27.43;51.15
68450;SHT30;55434;39.570;2.652;2022-07-06T00:37:56;27.38;50.55
68450;SHT30;55434;39.570;2.652;2022-07-06T00:40:22;27.36;50.70
68450;SHT30;55434;39.570;2.652;2022-07-06T00:42:48;27.31;50.64
68450;SHT30;55434;39.570;2.652;2022-07-06T00:45:15;27.27;50.75
68450;SHT30;55434;39.570;2.652;2022-07-06T00:47:41;27.27;51.06
68450;SHT30;55434;39.570;2.652;2022-07-06T00:50:08;27.26;51.06
68450;SHT30;55434;39.570;2.652;2022-07-06T00:52:44;27.24;51.87
68450;SHT30;55434;39.570;2.652;2022-07-06T00:55:11;27.23;52.81
68450;SHT30;55434;39.570;2.652;2022-07-06T00:57:37;27.23;52.38
68450;SHT30;55434;39.570;2.652;2022-07-06T01:00:05;27.30;51.19
68450;SHT30;55434;39.570;2.652;2022-07-06T01:02:33;27.31;51.43
68450;SHT30;55434;39.570;2.652;2022-07-06T01:04:58;27.30;51.40
68450;SHT30;55434;39.570;2.652;2022-07-06T01:07:25;27.33;51.34
68450;SHT30;55434;39.570;2.652;2022-07-06T01:09:50;27.36;51.19
68450;SHT30;55434;39.570;2.652;2022-07-06T01:12:16;27.30;51.31
68450;SHT30;55434;39.570;2.652;2022-07-06T01:14:43;27.27;52.44
68450;SHT30;55434;39.570;2.652;2022-07-06T01:17:09;27.34;51.35
68450;SHT30;55434;39.570;2.652;2022-07-06T01:19:35;27.33;51.95
68450;SHT30;55434;39.570;2.652;2022-07-06T01:22:00;27.27;51.68
68450;SHT30;55434;39.570;2.652;2022-07-06T01:24:26;27.24;52.42
68450;SHT30;55434;39.570;2.652;2022-07-06T01:26:52;27.27;53.04
68450;SHT30;55434;39.570;2.652;2022-07-06T01:29:17;27.36;52.48
68450;SHT30;55434;39.570;2.652;2022-07-06T01:31:47;27.38;51.80
68450;SHT30;55434;39.570;2.652;2022-07-06T01:34:14;27.44;52.40
68450;SHT30;55434;39.570;2.652;2022-07-06T01:36:41;27.43;51.57
68450;SHT30;55434;39.570;2.652;2022-07-06T01:39:08;27.46;51.62
68450;SHT30;55434;39.570;2.652;2022-07-06T01:41:33;27.48;52.01
68450;SHT30;55434;39.570;2.652;2022-07-06T01:43:59;27.43;51.13
68450;SHT30;55434;39.570;2.652;2022-07-06T01:46:25;27.53;51.01
68450;SHT30;55434;39.570;2.652;2022-07-06T01:48:50;27.58;51.12
68450;SHT30;55434;39.570;2.652;2022-07-06T01:51:16;27.85;50.41
68450;SHT30;55434;39.570;2.652;2022-07-06T01:53:41;28.10;49.40
68450;SHT30;55434;39.570;2.652;2022-07-06T01:56:07;28.67;52.18
68450;SHT30;55434;39.570;2.652;2022-07-06T01:58:33;28.86;51.74
68450;SHT30;55434;39.570;2.652;2022-07-06T02:00:58;28.25;55.85
68450;SHT30;55434;39.570;2.652;2022-07-06T02:03:24;26.92;60.44
68450;SHT30;55434;39.570;2.652;2022-07-06T02:05:50;26.53;62.17
68450;SHT30;55434;39.570;2.652;2022-07-06T02:08:15;26.44;60.88
68450;SHT30;55434;39.570;2.652;2022-07-06T02:10:41;26.39;62.50
68450;SHT30;55434;39.570;2.652;2022-07-06T02:13:06;26.28;63.13
68450;SHT30;55434;39.570;2.652;2022-07-06T02:15:32;26.05;63.71
68450;SHT30;55434;39.570;2.652;2022-07-06T02:17:57;25.84;66.23
68450;SHT30;55434;39.570;2.652;2022-07-06T02:20:23;25.93;65.85
68450;SHT30;55434;39.570;2.652;2022-07-06T02:22:48;25.81;67.02
68450;SHT30;55434;39.570;2.652;2022-07-06T02:25:14;25.78;67.31
68450;SHT30;55434;39.570;2.652;2022-07-06T02:27:39;26.01;66.16
68450;SHT30;55434;39.570;2.652;2022-07-06T02:30:06;26.21;66.23
68450;SHT30;55434;39.570;2.652;2022-07-06T02:32:31;26.26;65.24
68450;SHT30;55434;39.570;2.652;2022-07-06T02:34:57;26.35;64.68
68450;SHT30;55434;39.570;2.652;2022-07-06T02:37:24;26.44;65.04
68450;SHT30;55434;39.570;2.652;2022-07-06T02:39:49;26.60;64.95
68450;SHT30;55434;39.570;2.652;2022-07-06T02:42:15;26.45;65.81
68450;SHT30;55434;39.570;2.652;2022-07-06T02:44:40;26.28;68.02
68450;SHT30;55434;39.570;2.652;2022-07-06T02:47:06;26.21;73.19
68450;SHT30;55434;39.570;2.652;2022-07-06T02:49:32;25.91;70.21
68450;SHT30;55434;39.570;2.652;2022-07-06T02:51:58;25.74;70.91
68450;SHT30;55434;39.570;2.652;2022-07-06T02:54:23;25.66;72.04
68450;SHT30;55434;39.570;2.652;2022-07-06T02:56:49;25.67;72.65
68450;SHT30;55434;39.570;2.652;2022-07-06T02:59:18;25.64;72.64
68450;SHT30;55434;39.570;2.652;2022-07-06T03:01:44;25.64;72.61
68450;SHT30;55434;39.570;2.652;2022-07-06T03:04:10;25.71;72.67
68450;SHT30;55434;39.570;2.652;2022-07-06T03:06:35;25.90;71.21
68450;SHT30;55434;39.570;2.652;2022-07-06T03:09:00;26.31;69.51
68450;SHT30;55434;39.570;2.652;2022-07-06T03:11:27;26.53;68.31
68450;SHT30;55434;39.570;2.652;2022-07-06T03:13:52;26.73;67.95
68450;SHT30;55434;39.570;2.652;2022-07-06T03:16:18;26.71;68.11
68450;SHT30;55434;39.570;2.652;2022-07-06T03:18:43;26.75;67.66
68450;SHT30;55434;39.570;2.652;2022-07-06T03:21:09;26.63;67.97
68450;SHT30;55434;39.570;2.652;2022-07-06T03:23:34;26.36;69.33
68450;SHT30;55434;39.570;2.652;2022-07-06T03:26:00;26.17;67.59
68450;SHT30;55434;39.570;2.652;2022-07-06T03:28:25;26.32;66.15
68450;SHT30;55434;39.570;2.652;2022-07-06T03:30:51;26.31;65.55
68450;SHT30;55434;39.570;2.652;2022-07-06T03:33:16;26.32;65.72
68450;SHT30;55434;39.570;2.652;2022-07-06T03:35:42;26.26;66.09
68450;SHT30;55434;39.570;2.652;2022-07-06T03:38:07;26.29;66.12
68450;SHT30;55434;39.570;2.652;2022-07-06T03:40:33;26.39;66.18
68450;SHT30;55434;39.570;2.652;2022-07-06T03:42:59;26.53;66.64
68450;SHT30;55434;39.570;2.652;2022-07-06T03:45:24;26.59;66.67
68450;SHT30;55434;39.570;2.652;2022-07-06T03:47:50;26.53;66.75
68450;SHT30;55434;39.570;2.652;2022-07-06T03:50:16;26.48;66.30
68450;SHT30;55434;39.570;2.652;2022-07-06T03:52:41;26.46;68.22
68450;SHT30;55434;39.570;2.652;2022-07-06T03:55:11;26.45;71.21
68450;SHT30;55434;39.570;2.652;2022-07-06T03:57:37;26.45;71.76
68450;SHT30;55434;39.570;2.652;2022-07-06T04:00:04;26.42;72.74
68450;SHT30;55434;39.570;2.652;2022-07-06T04:02:30;26.44;73.46
68450;SHT30;55434;39.570;2.652;2022-07-06T04:04:55;26.46;73.18
68450;SHT30;55434;39.570;2.652;2022-07-06T04:07:21;26.51;73.19
68450;SHT30;55434;39.570;2.652;2022-07-06T04:09:47;26.53;72.94
68450;SHT30;55434;39.570;2.652;2022-07-06T04:12:12;26.51;73.04
68450;SHT30;55434;39.570;2.652;2022-07-06T04:14:38;26.48;73.28
68450;SHT30;55434;39.570;2.652;2022-07-06T04:17:04;26.55;73.16
68450;SHT30;55434;39.570;2.652;2022-07-06T04:19:49;26.55;73.26
68450;SHT30;55434;39.570;2.652;2022-07-06T04:22:15;26.51;73.06
68450;SHT30;55434;39.570;2.652;2022-07-06T04:24:41;26.56;72.54
68450;SHT30;55434;39.570;2.652;2022-07-06T04:27:07;26.62;71.76
68450;SHT30;55434;39.570;2.652;2022-07-06T04:29:32;26.69;70.57
68450;SHT30;55434;39.570;2.652;2022-07-06T04:31:58;26.71;70.08
68450;SHT30;55434;39.570;2.652;2022-07-06T04:34:23;26.75;69.28
68450;SHT30;55434;39.570;2.652;2022-07-06T04:36:49;26.80;69.07
68450;SHT30;55434;39.570;2.652;2022-07-06T04:39:14;26.83;68.99
68450;SHT30;55434;39.570;2.652;2022-07-06T04:41:40;26.79;69.09
68450;SHT30;55434;39.570;2.652;2022-07-06T04:44:05;26.79;69.20
68450;SHT30;55434;39.570;2.652;2022-07-06T04:46:31;26.79;69.42
68450;SHT30;55434;39.570;2.652;2022-07-06T04:48:56;26.75;69.96
68450;SHT30;55434;39.570;2.652;2022-07-06T04:51:22;26.78;70.01
68450;SHT30;55434;39.570;2.652;2022-07-06T04:53:47;26.80;69.92
68450;SHT30;55434;39.570;2.652;2022-07-06T04:56:13;26.89;69.69
68450;SHT30;55434;39.570;2.652;2022-07-06T04:58:38;26.95;69.29
68450;SHT30;55434;39.570;2.652;2022-07-06T05:01:04;26.96;69.29
68450;SHT30;55434;39.570;2.652;2022-07-06T05:03:29;26.97;69.38
68450;SHT30;55434;39.570;2.652;2022-07-06T05:05:55;27.03;69.17
68450;SHT30;55434;39.570;2.652;2022-07-06T05:08:21;27.07;68.21
68450;SHT30;55434;39.570;2.652;2022-07-06T05:10:48;27.04;66.83
68450;SHT30;55434;39.570;2.652;2022-07-06T05:13:13;27.11;66.08
68450;SHT30;55434;39.570;2.652;2022-07-06T05:15:39;27.13;64.50
68450;SHT30;55434;39.570;2.652;2022-07-06T05:18:04;27.16;65.12
68450;SHT30;55434;39.570;2.652;2022-07-06T05:20:30;27.17;64.11
68450;SHT30;55434;39.570;2.652;2022-07-06T05:22:56;27.16;63.49
68450;SHT30;55434;39.570;2.652;2022-07-06T05:25:21;27.11;62.26
68450;SHT30;55434;39.570;2.652;2022-07-06T05:27:47;27.20;62.00
68450;SHT30;55434;39.570;2.652;2022-07-06T05:30:13;27.22;61.90
68450;SHT30;55434;39.570;2.652;2022-07-06T05:32:40;27.17;61.59
68450;SHT30;55434;39.570;2.652;2022-07-06T05:35:07;27.18;62.61
68450;SHT30;55434;39.570;2.652;2022-07-06T05:37:32;27.18;62.22
68450;SHT30;55434;39.570;2.652;2022-07-06T05:39:58;27.22;62.22
68450;SHT30;55434;39.570;2.652;2022-07-06T05:42:23;27.22;61.98
68450;SHT30;55434;39.570;2.652;2022-07-06T05:44:49;27.20;61.92
68450;SHT30;55434;39.570;2.652;2022-07-06T05:47:15;27.22;62.41
68450;SHT30;55434;39.570;2.652;2022-07-06T05:49:59;27.36;62.15
68450;SHT30;55434;39.570;2.652;2022-07-06T05:52:41;27.46;62.05
68450;SHT30;55434;39.570;2.652;2022-07-06T05:55:08;27.50;62.06
68450;SHT30;55434;39.570;2.652;2022-07-06T05:57:33;27.50;61.94
68450;SHT30;55434;39.570;2.652;2022-07-06T05:59:59;27.59;61.81
68450;SHT30;55434;39.570;2.652;2022-07-06T06:02:24;27.64;61.70
68450;SHT30;55434;39.570;2.652;2022-07-06T06:04:50;27.65;61.94
68450;SHT30;55434;39.570;2.652;2022-07-06T06:07:15;27.64;61.06
68450;SHT30;55434;39.570;2.652;2022-07-06T06:09:41;27.69;60.91
68450;SHT30;55434;39.570;2.652;2022-07-06T06:12:07;27.75;59.30
68450;SHT30;55434;39.570;2.652;2022-07-06T06:14:32;27.85;58.94
68450;SHT30;55434;39.570;2.652;2022-07-06T06:16:58;27.94;56.73
68450;SHT30;55434;39.570;2.652;2022-07-06T06:19:24;27.96;55.67
68450;SHT30;55434;39.570;2.652;2022-07-06T06:21:50;27.95;55.97
68450;SHT30;55434;39.570;2.652;2022-07-06T06:24:17;27.96;55.25
68450;SHT30;55434;39.570;2.652;2022-07-06T06:26:42;27.94;54.59
68450;SHT30;55434;39.570;2.652;2022-07-06T06:29:08;27.96;54.57
68450;SHT30;55434;39.570;2.652;2022-07-06T06:31:43;28.04;53.97
68450;SHT30;55434;39.570;2.652;2022-07-06T06:34:09;28.10;53.57
68450;SHT30;55434;39.570;2.652;2022-07-06T06:36:34;28.08;53.32
68450;SHT30;55434;39.570;2.652;2022-07-06T06:38:59;28.06;53.03
68450;SHT30;55434;39.570;2.652;2022-07-06T06:41:27;28.15;53.10
68450;SHT30;55434;39.570;2.652;2022-07-06T06:43:52;28.15;52.39
68450;SHT30;55434;39.570;2.652;2022-07-06T06:46:18;28.25;52.89
68450;SHT30;55434;39.570;2.652;2022-07-06T06:48:43;28.22;51.88
68450;SHT30;55434;39.570;2.652;2022-07-06T06:51:08;28.31;52.10
68450;SHT30;55434;39.570;2.652;2022-07-06T06:53:34;28.33;51.92
68450;SHT30;55434;39.570;2.652;2022-07-06T06:55:59;28.23;49.74
68450;SHT30;55434;39.570;2.652;2022-07-06T06:58:25;28.18;48.00
68450;SHT30;55434;39.570;2.652;2022-07-06T07:00:50;28.19;48.73
68450;SHT30;55434;39.570;2.652;2022-07-06T07:03:16;28.15;49.00
68450;SHT30;55434;39.570;2.652;2022-07-06T07:05:42;28.08;48.10
68450;SHT30;55434;39.570;2.652;2022-07-06T07:08:07;27.99;47.69
68450;SHT30;55434;39.570;2.652;2022-07-06T07:10:33;27.95;48.13
68450;SHT30;55434;39.570;2.652;2022-07-06T07:12:58;28.02;48.65
68450;SHT30;55434;39.570;2.652;2022-07-06T07:15:24;27.99;48.15
68450;SHT30;55434;39.570;2.652;2022-07-06T07:17:50;28.04;48.62
68450;SHT30;55434;39.570;2.652;2022-07-06T07:20:15;28.12;48.39
68450;SHT30;55434;39.570;2.652;2022-07-06T07:22:41;28.09;47.59
68450;SHT30;55434;39.570;2.652;2022-07-06T07:25:07;28.22;47.40
68450;SHT30;55434;39.570;2.652;2022-07-06T07:27:32;28.32;48.05
68450;SHT30;55434;39.570;2.652;2022-07-06T07:29:58;28.26;48.00
68450;SHT30;55434;39.570;2.652;2022-07-06T07:32:24;28.16;47.98
68450;SHT30;55434;39.570;2.652;2022-07-06T07:34:49;28.26;48.49
68450;SHT30;55434;39.570;2.652;2022-07-06T07:37:15;28.29;48.04
68450;SHT30;55434;39.570;2.652;2022-07-06T07:39:42;28.36;47.68
68450;SHT30;55434;39.570;2.652;2022-07-06T07:42:07;28.45;47.44
68450;SHT30;55434;39.570;2.652;2022-07-06T07:44:33;28.56;46.79
68450;SHT30;55434;39.570;2.652;2022-07-06T07:46:58;28.69;47.07
68450;SHT30;55434;39.570;2.652;2022-07-06T07:49:24;28.79;46.43
68450;SHT30;55434;39.570;2.652;2022-07-06T07:51:51;28.81;47.75
68450;SHT30;55434;39.570;2.652;2022-07-06T07:54:17;28.70;47.25
68450;SHT30;55434;39.570;2.652;2022-07-06T07:56:43;28.69;46.49
68450;SHT30;55434;39.570;2.652;2022-07-06T07:59:11;28.87;46.86
68450;SHT30;55434;39.570;2.652;2022-07-06T08:01:37;28.77;46.94
68450;SHT30;55434;39.570;2.652;2022-07-06T08:04:02;28.77;47.14
68450;SHT30;55434;39.570;2.652;2022-07-06T08:06:28;28.94;47.24
68450;SHT30;55434;39.570;2.652;2022-07-06T08:08:54;28.98;46.85
68450;SHT30;55434;39.570;2.652;2022-07-06T08:11:19;29.14;46.80
68450;SHT30;55434;39.570;2.652;2022-07-06T08:13:46;29.12;46.62
68450;SHT30;55434;39.570;2.652;2022-07-06T08:16:12;29.11;47.08
68450;SHT30;55434;39.570;2.652;2022-07-06T08:18:38;29.21;47.32
68450;SHT30;55434;39.570;2.652;2022-07-06T08:21:04;29.32;47.06
68450;SHT30;55434;39.570;2.652;2022-07-06T08:23:30;29.38;46.91
68450;SHT30;55434;39.570;2.652;2022-07-06T08:25:56;29.28;46.34
68450;SHT30;55434;39.570;2.652;2022-07-06T08:28:22;29.47;45.91
68450;SHT30;55434;39.570;2.652;2022-07-06T08:30:47;29.62;45.97
68450;SHT30;55434;39.570;2.652;2022-07-06T08:33:13;29.81;45.82
68450;SHT30;55434;39.570;2.652;2022-07-06T08:35:39;29.68;45.89
68450;SHT30;55434;39.570;2.652;2022-07-06T08:38:05;29.62;45.88
68450;SHT30;55434;39.570;2.652;2022-07-06T08:40:34;29.58;45.66
68450;SHT30;55434;39.570;2.652;2022-07-06T08:43:02;29.49;45.86
68450;SHT30;55434;39.570;2.652;2022-07-06T08:45:35;29.63;45.72
68450;SHT30;55434;39.570;2.652;2022-07-06T08:48:06;29.75;44.99
68450;SHT30;55434;39.570;2.652;2022-07-06T08:50:33;29.73;44.78
68450;SHT30;55434;39.570;2.652;2022-07-06T08:52:58;29.76;45.21
68450;SHT30;55434;39.570;2.652;2022-07-06T08:55:28;29.81;45.15
68450;SHT30;55434;39.570;2.652;2022-07-06T08:57:55;29.93;44.55
68450;SHT30;55434;39.570;2.652;2022-07-06T09:00:22;30.13;44.50
68450;SHT30;55434;39.570;2.652;2022-07-06T09:02:48;30.23;44.13
68450;SHT30;55434;39.570;2.652;2022-07-06T09:05:19;30.19;44.31
68450;SHT30;55434;39.570;2.652;2022-07-06T09:07:49;30.17;44.24
68450;SHT30;55434;39.570;2.652;2022-07-06T09:10:18;30.43;44.20
68450;SHT30;55434;39.570;2.652;2022-07-06T09:12:44;30.44;43.55
68450;SHT30;55434;39.570;2.652;2022-07-06T09:15:10;30.29;44.09
68450;SHT30;55434;39.570;2.652;2022-07-06T09:17:40;30.29;44.14
68450;SHT30;55434;39.570;2.652;2022-07-06T09:20:11;30.30;44.59
68450;SHT30;55434;39.570;2.652;2022-07-06T09:22:39;30.40;43.94
68450;SHT30;55434;39.570;2.652;2022-07-06T09:25:07;30.51;43.92
68450;SHT30;55434;39.570;2.652;2022-07-06T09:27:41;30.32;43.65
68450;SHT30;55434;39.570;2.652;2022-07-06T09:30:09;30.03;43.95
68450;SHT30;55434;39.570;2.652;2022-07-06T09:32:42;30.03;44.52
68450;SHT30;55434;39.570;2.652;2022-07-06T09:35:18;30.23;44.80
68450;SHT30;55434;39.570;2.652;2022-07-06T09:37:45;30.44;44.61
68450;SHT30;55434;39.570;2.652;2022-07-06T09:40:17;30.26;45.39
68450;SHT30;55434;39.570;2.652;2022-07-06T09:42:44;30.05;46.31
68450;SHT30;55434;39.570;2.652;2022-07-06T09:45:10;30.00;46.63
68450;SHT30;55434;39.570;2.652;2022-07-06T09:47:35;30.05;46.58
68450;SHT30;55434;39.570;2.652;2022-07-06T09:50:05;30.24;46.45
68450;SHT30;55434;39.570;2.652;2022-07-06T09:52:35;30.17;46.49
68450;SHT30;55434;39.570;2.652;2022-07-06T09:55:05;30.12;46.66
68450;SHT30;55434;39.570;2.652;2022-07-06T09:57:31;30.03;45.86
68450;SHT30;55434;39.570;2.652;2022-07-06T09:59:58;29.93;45.51
68450;SHT30;55434;39.570;2.652;2022-07-06T10:02:24;29.76;43.39
68450;SHT30;55434;39.570;2.652;2022-07-06T10:04:53;29.69;42.77
68450;SHT30;55434;39.570;2.652;2022-07-06T10:07:22;29.75;42.12
68450;SHT30;55434;39.570;2.652;2022-07-06T10:09:49;29.93;42.62
68450;SHT30;55434;39.570;2.652;2022-07-06T10:12:17;30.27;41.34
68450;SHT30;55434;39.570;2.652;2022-07-06T10:14:43;30.67;41.19
68450;SHT30;55434;39.570;2.652;2022-07-06T10:17:09;30.73;44.25
68450;SHT30;55434;39.570;2.652;2022-07-06T10:19:35;30.33;44.60
68450;SHT30;55434;39.570;2.652;2022-07-06T10:22:03;29.99;44.42
68450;SHT30;55434;39.570;2.652;2022-07-06T10:24:30;30.09;43.94
68450;SHT30;55434;39.570;2.652;2022-07-06T10:26:59;30.29;44.42
68450;SHT30;55434;39.570;2.652;2022-07-06T10:29:25;30.60;43.30
68450;SHT30;55434;39.570;2.652;2022-07-06T10:31:53;30.59;43.49
68450;SHT30;55434;39.570;2.652;2022-07-06T10:34:22;31.93;40.20
68450;SHT30;55434;39.570;2.652;2022-07-06T10:36:57;32.45;39.11
68450;SHT30;55434;39.570;2.652;2022-07-06T10:39:37;32.88;38.13
68450;SHT30;55434;39.570;2.652;2022-07-06T10:50:52;34.71;35.15
68450;SHT30;55434;39.570;2.652;2022-07-06T10:53:24;35.39;34.19
68450;SHT30;55434;39.570;2.652;2022-07-06T10:55:52;35.09;35.18
68450;SHT30;55434;39.570;2.652;2022-07-06T11:01:03;35.15;35.06
68450;SHT30;55434;39.570;2.652;2022-07-06T11:03:33;36.37;33.26
68450;SHT30;55434;39.570;2.652;2022-07-06T11:06:01;36.21;33.18
68450;SHT30;55434;39.570;2.652;2022-07-06T11:08:49;36.14;32.61
68450;SHT30;55434;39.570;2.652;2022-07-06T11:14:17;36.30;31.75
68450;SHT30;55434;39.570;2.652;2022-07-06T11:19:21;36.04;32.36
68450;SHT30;55434;39.570;2.652;2022-07-06T11:21:56;37.44;31.33
68450;SHT30;55434;39.570;2.652;2022-07-06T11:24:27;37.40;30.88
68450;SHT30;55434;39.570;2.652;2022-07-06T11:26:55;37.95;30.52
68450;SHT30;55434;39.570;2.652;2022-07-06T11:29:23;36.64;31.59
68450;SHT30;55434;39.570;2.652;2022-07-06T11:31:51;37.46;30.59
68450;SHT30;55434;39.570;2.652;2022-07-06T11:34:21;37.64;30.07
68450;SHT30;55434;39.570;2.652;2022-07-06T11:36:47;37.95;29.76
68450;SHT30;55434;39.570;2.652;2022-07-06T11:39:14;38.17;29.09
68450;SHT30;55434;39.570;2.652;2022-07-06T11:41:40;37.56;29.54
68450;SHT30;55434;39.570;2.652;2022-07-06T11:44:06;38.05;29.64
68450;SHT30;55434;39.570;2.652;2022-07-06T11:46:35;37.47;30.05
68450;SHT30;55434;39.570;2.652;2022-07-06T11:49:03;37.44;29.85
68450;SHT30;55434;39.570;2.652;2022-07-06T11:51:31;38.48;28.72
68450;SHT30;55434;39.570;2.652;2022-07-06T11:53:59;36.92;30.09
68450;SHT30;55434;39.570;2.652;2022-07-06T11:56:26;35.81;31.24
68450;SHT30;55434;39.570;2.652;2022-07-06T11:59:01;36.56;30.49
68450;SHT30;55434;39.570;2.652;2022-07-06T12:01:28;37.76;28.93
68450;SHT30;55434;39.570;2.652;2022-07-06T12:03:58;38.48;28.32
68450;SHT30;55434;39.570;2.652;2022-07-06T12:06:26;38.20;28.26
68450;SHT30;55434;39.570;2.652;2022-07-06T12:08:53;38.08;28.64
68450;SHT30;55434;39.570;2.652;2022-07-06T12:11:27;38.65;27.65
68450;SHT30;55434;39.570;2.652;2022-07-06T12:13:55;38.38;28.43
68450;SHT30;55434;39.570;2.652;2022-07-06T12:16:21;39.12;27.43
68450;SHT30;55434;39.570;2.652;2022-07-06T12:18:49;39.87;26.53
68450;SHT30;55434;39.570;2.652;2022-07-06T12:21:18;38.54;27.58
68450;SHT30;55434;39.570;2.652;2022-07-06T12:23:52;38.45;27.79
68450;SHT30;55434;39.570;2.652;2022-07-06T12:26:19;39.00;27.41
68450;SHT30;55434;39.570;2.652;2022-07-06T12:28:46;38.87;27.10
68450;SHT30;55434;39.570;2.652;2022-07-06T12:31:38;38.39;28.11
68450;SHT30;55434;39.570;2.652;2022-07-06T12:34:34;38.00;28.47
68450;SHT30;55434;39.570;2.652;2022-07-06T12:37:09;35.76;31.28
68450;SHT30;55434;39.570;2.652;2022-07-06T12:39:45;35.32;31.64
68450;SHT30;55434;39.570;2.652;2022-07-06T12:42:13;35.57;31.86
68450;SHT30;55434;39.570;2.652;2022-07-06T12:44:52;34.72;32.90
68450;SHT30;55434;39.570;2.652;2022-07-06T12:47:24;34.14;34.37
68450;SHT30;55434;39.570;2.652;2022-07-06T12:50:07;33.97;34.38
68450;SHT30;55434;39.570;2.652;2022-07-06T12:52:33;33.85;34.45
68450;SHT30;55434;39.570;2.652;2022-07-06T12:55:01;33.76;34.66
68450;SHT30;55434;39.570;2.652;2022-07-06T12:57:27;33.59;34.84
68450;SHT30;55434;39.570;2.652;2022-07-06T13:02:30;32.99;38.50
68450;SHT30;55434;39.570;2.652;2022-07-06T13:04:58;32.67;38.33
68450;SHT30;55434;39.570;2.652;2022-07-06T13:07:25;32.65;36.65
68450;SHT30;55434;39.570;2.652;2022-07-06T13:09:51;33.04;36.02
68450;SHT30;55434;39.570;2.652;2022-07-06T13:12:16;33.43;35.78
68450;SHT30;55434;39.570;2.652;2022-07-06T13:14:42;33.93;35.06
68450;SHT30;55434;39.570;2.652;2022-07-06T13:17:08;35.02;32.45
68450;SHT30;55434;39.570;2.652;2022-07-06T13:19:37;35.76;31.80
68450;SHT30;55434;39.570;2.652;2022-07-06T13:22:07;37.19;30.42
68450;SHT30;55434;39.570;2.652;2022-07-06T13:24:34;36.72;30.85
68450;SHT30;55434;39.570;2.652;2022-07-06T13:26:59;35.56;31.74
68450;SHT30;55434;39.570;2.652;2022-07-06T13:29:25;35.49;31.83
68450;SHT30;55434;39.570;2.652;2022-07-06T13:31:51;34.91;32.35
68450;SHT30;55434;39.570;2.652;2022-07-06T13:34:16;35.20;32.47
68450;SHT30;55434;39.570;2.652;2022-07-06T13:36:42;34.92;32.41
68450;SHT30;55434;39.570;2.652;2022-07-06T13:39:08;36.21;31.08
68450;SHT30;55434;39.570;2.652;2022-07-06T13:41:35;35.46;31.58
68450;SHT30;55434;39.570;2.652;2022-07-06T13:44:01;36.67;30.42
68450;SHT30;55434;39.570;2.652;2022-07-06T13:47:13;37.57;28.99
68450;SHT30;55434;39.570;2.652;2022-07-06T13:56:14;37.83;28.69
68450;SHT30;55434;39.570;2.652;2022-07-06T13:58:46;38.79;27.67
68450;SHT30;55434;39.570;2.652;2022-07-06T14:01:22;37.98;28.36
68450;SHT30;55434;39.570;2.652;2022-07-06T14:03:54;37.26;28.86
68450;SHT30;55434;39.570;2.652;2022-07-06T14:06:32;38.13;28.37
68450;SHT30;55434;39.570;2.652;2022-07-06T14:09:06;37.52;28.83
68450;SHT30;55434;39.570;2.652;2022-07-06T14:11:32;36.98;29.62
68450;SHT30;55434;39.570;2.652;2022-07-06T14:14:04;36.93;30.03
68450;SHT30;55434;39.570;2.652;2022-07-06T14:16:37;36.69;30.01
68450;SHT30;55434;39.570;2.652;2022-07-06T14:19:02;36.60;30.32
68450;SHT30;55434;39.570;2.652;2022-07-06T14:21:28;37.11;30.15
68450;SHT30;55434;39.570;2.652;2022-07-06T14:23:56;37.54;29.56
68450;SHT30;55434;39.570;2.652;2022-07-06T14:26:24;37.22;29.80
68450;SHT30;55434;39.570;2.652;2022-07-06T14:28:50;37.34;29.55
68450;SHT30;55434;39.570;2.652;2022-07-06T14:31:17;37.70;28.89
68450;SHT30;55434;39.570;2.652;2022-07-06T14:33:45;37.37;29.54
68450;SHT30;55434;39.570;2.652;2022-07-06T14:36:11;38.51;28.16
68450;SHT30;55434;39.570;2.652;2022-07-06T14:38:40;37.84;28.79
68450;SHT30;55434;39.570;2.652;2022-07-06T14:41:05;37.46;29.38
68450;SHT30;55434;39.570;2.652;2022-07-06T14:43:31;37.85;28.97
68450;SHT30;55434;39.570;2.652;2022-07-06T14:45:59;38.76;28.19
68450;SHT30;55434;39.570;2.652;2022-07-06T14:48:25;37.98;28.77
68450;SHT30;55434;39.570;2.652;2022-07-06T14:50:51;37.43;29.21
68450;SHT30;55434;39.570;2.652;2022-07-06T14:53:17;37.66;28.99
68450;SHT30;55434;39.570;2.652;2022-07-06T14:55:42;38.21;28.54
68450;SHT30;55434;39.570;2.652;2022-07-06T14:58:08;38.10;28.81
68450;SHT30;55434;39.570;2.652;2022-07-06T15:00:34;37.66;29.47
68450;SHT30;55434;39.570;2.652;2022-07-06T15:02:59;37.50;29.92
68450;SHT30;55434;39.570;2.652;2022-07-06T15:05:25;37.50;30.04
68450;SHT30;55434;39.570;2.652;2022-07-06T15:07:50;36.35;31.34
68450;SHT30;55434;39.570;2.652;2022-07-06T15:10:16;36.56;30.90
68450;SHT30;55434;39.570;2.652;2022-07-06T15:12:43;37.13;30.37
68450;SHT30;55434;39.570;2.652;2022-07-06T15:15:08;38.35;29.05
68450;SHT30;55434;39.570;2.652;2022-07-06T15:17:34;37.94;29.75
68450;SHT30;55434;39.570;2.652;2022-07-06T15:20:01;37.52;29.47
68450;SHT30;55434;39.570;2.652;2022-07-06T15:22:26;37.08;30.42
68450;SHT30;55434;39.570;2.652;2022-07-06T15:24:54;37.77;29.73
68450;SHT30;55434;39.570;2.652;2022-07-06T15:27:20;37.42;30.25
68450;SHT30;55434;39.570;2.652;2022-07-06T15:29:47;37.63;30.14
68450;SHT30;55434;39.570;2.652;2022-07-06T15:32:13;37.70;29.96
68450;SHT30;55434;39.570;2.652;2022-07-06T15:34:38;36.91;30.88
68450;SHT30;55434;39.570;2.652;2022-07-06T15:37:04;36.96;30.59
68450;SHT30;55434;39.570;2.652;2022-07-06T15:39:30;37.30;30.41
68450;SHT30;55434;39.570;2.652;2022-07-06T15:41:55;37.95;29.77
68450;SHT30;55434;39.570;2.652;2022-07-06T15:44:22;38.27;29.51
68450;SHT30;55434;39.570;2.652;2022-07-06T15:46:47;38.52;29.14
68450;SHT30;55434;39.570;2.652;2022-07-06T15:49:15;37.70;29.62
68450;SHT30;55434;39.570;2.652;2022-07-06T15:51:42;37.53;29.99
68450;SHT30;55434;39.570;2.652;2022-07-06T15:54:08;37.57;29.48
68450;SHT30;55434;39.570;2.652;2022-07-06T15:56:35;37.94;29.13